CheckWX is a tool to help pilots better visualize weather data.  It is not intended as a substitute for an official pre-flight weather briefing.

20:57:03 UTC

DAOI TAF
Ech Cheliff Airport
Algeria
TAF DAOI 221700Z 2218/2318 36008KT 8000 SCT023 BKN026 BECMG 2219/2222 VRB02KT TEMPO 2302/2308 4000 BR BECMG 2310/2313 36005KT 9999 FEW026 BECMG 2316/2318 VRB02KT 9999 SCT030 SCT233

Mar-22@
18:00 UTC

Mar-22 @ 18:00 UTC

Mar-22@
19:00 UTC

Mar-22 @ 19:00 UTC

TAF DAOI 221700Z 2218/2318 36008KT 8000 SCT023 BKN026

Expired

Wind
  • 360° at 8 KTS
Cloud Levels
  • Scattered at 2,300' AGL
  • Broken at 2,600' AGL

Mar-22@
19:00 UTC

Mar-22 @ 19:00 UTC

Mar-23@
10:00 UTC

Mar-23 @ 10:00 UTC

BECMG 2219/2222 VRB02KT

Becoming

Becoming Conditions expected by Fri, Mar 22, 2019 @ 22:00 UTC

Wind
  • Variable at 2 KTS
Cloud Levels
  • Scattered at 2,300' AGL
  • Broken at 2,600' AGL

Mar-23@
02:00 UTC

Mar-23 @ 02:00 UTC

Mar-23@
08:00 UTC

Mar-23 @ 08:00 UTC

TEMPO 2302/2308 4000 BR

Temporary

Temporary Changes expected for less than half the time period

Conditions
Mist

Mar-23@
10:00 UTC

Mar-23 @ 10:00 UTC

Mar-23@
16:00 UTC

Mar-23 @ 16:00 UTC

BECMG 2310/2313 36005KT 9999 FEW026

Becoming

Becoming Conditions expected by Sat, Mar 23, 2019 @ 13:00 UTC

Wind
  • 360° at 5 KTS
Cloud Levels
  • Few at 2,600' AGL

Mar-23@
16:00 UTC

Mar-23 @ 16:00 UTC

Mar-23@
18:00 UTC

Mar-23 @ 18:00 UTC

BECMG 2316/2318 VRB02KT 9999 SCT030 SCT233

Becoming

Becoming Conditions expected by Sat, Mar 23, 2019 @ 18:00 UTC

Wind
  • Variable at 2 KTS
Cloud Levels
  • Scattered at 3,000' AGL
  • Scattered at 23,300' AGL